KSWF/SWF METAR and TAF weather

Enter ICAO airport designator
Station Type Date Time Source
KSWF METAR 2022/08/13 12:45 UTC NOAA

KSWF 131245Z VRB04KT 10SM SCT055 19/10 A3014


Station Type Date Time Source
KSWF Decoded METAR 2022/08/13 12:45 UTC NOAA

Newburgh / Stewart, NY, United States (KSWF) 41-30N 074-06W
Aug 13, 2022 - 08:45 AM EDT / 2022.08.13 1245 UTC
Wind: Variable at 5 MPH (4 KT):0
Visibility: 10 mile(s):0
Sky conditions: partly cloudy
Temperature: 66 F (19 C)
Dew Point: 50 F (10 C)
Relative Humidity: 55%
Pressure (altimeter): 30.14 in. Hg (1020 hPa)
ob: KSWF 131245Z VRB04KT 10SM SCT055 19/10 A3014
cycle: 13

Station Type Date Time Source
KSWF TAF 2022/08/13 12:24 UTC NOAA

TAF KSWF 131122Z 1312/1418 VRB03KT P6SM SKC
FM131300 35008KT P6SM FEW050
FM140000 VRB03KT P6SM SKC
FM141200 24004KT P6SM SKC
AMD NOT SKED

Example: see airport list